sensor_id;sensor_type;location;lat;lon;timestamp;P1;durP1;ratioP1;P2;durP2;ratioP2
6467;SDS011;3267;48.794;9.928;2022-07-29T04:01:15;1.15;;;1.13;;
6467;SDS011;3267;48.794;9.928;2022-07-29T04:03:44;1.77;;;1.55;;
6467;SDS011;3267;48.794;9.928;2022-07-29T04:06:10;1.40;;;1.30;;
6467;SDS011;3267;48.794;9.928;2022-07-29T04:08:37;5.40;;;1.40;;
6467;SDS011;3267;48.794;9.928;2022-07-29T04:11:03;1.23;;;1.23;;
6467;SDS011;3267;48.794;9.928;2022-07-29T04:13:30;1.85;;;1.30;;
6467;SDS011;3267;48.794;9.928;2022-07-29T04:15:56;1.50;;;1.38;;
6467;SDS011;3267;48.794;9.928;2022-07-29T04:18:23;1.17;;;1.08;;
6467;SDS011;3267;48.794;9.928;2022-07-29T04:20:50;4.63;;;1.55;;
6467;SDS011;3267;48.794;9.928;2022-07-29T04:23:17;1.40;;;1.30;;
6467;SDS011;3267;48.794;9.928;2022-07-29T04:25:43;1.27;;;1.20;;
6467;SDS011;3267;48.794;9.928;2022-07-29T04:28:09;1.85;;;1.33;;
6467;SDS011;3267;48.794;9.928;2022-07-29T04:30:36;1.48;;;1.35;;
6467;SDS011;3267;48.794;9.928;2022-07-29T04:33:03;1.55;;;1.25;;
6467;SDS011;3267;48.794;9.928;2022-07-29T04:35:30;1.90;;;1.50;;
6467;SDS011;3267;48.794;9.928;2022-07-29T04:37:56;3.70;;;1.40;;
6467;SDS011;3267;48.794;9.928;2022-07-29T04:40:22;1.60;;;1.50;;
6467;SDS011;3267;48.794;9.928;2022-07-29T04:42:48;4.05;;;1.55;;
6467;SDS011;3267;48.794;9.928;2022-07-29T04:45:15;1.40;;;1.30;;
6467;SDS011;3267;48.794;9.928;2022-07-29T04:47:41;1.10;;;1.10;;
6467;SDS011;3267;48.794;9.928;2022-07-29T04:50:08;1.20;;;1.10;;
6467;SDS011;3267;48.794;9.928;2022-07-29T04:52:34;1.50;;;1.27;;
6467;SDS011;3267;48.794;9.928;2022-07-29T04:55:01;1.25;;;1.10;;
6467;SDS011;3267;48.794;9.928;2022-07-29T04:57:27;1.10;;;1.10;;
6467;SDS011;3267;48.794;9.928;2022-07-29T04:59:54;1.45;;;1.35;;
6467;SDS011;3267;48.794;9.928;2022-07-29T05:02:20;1.30;;;1.20;;
6467;SDS011;3267;48.794;9.928;2022-07-29T05:04:47;3.00;;;1.50;;
6467;SDS011;3267;48.794;9.928;2022-07-29T05:07:13;3.03;;;1.45;;
6467;SDS011;3267;48.794;9.928;2022-07-29T05:09:40;1.70;;;1.58;;
6467;SDS011;3267;48.794;9.928;2022-07-29T05:12:06;2.88;;;1.73;;
6467;SDS011;3267;48.794;9.928;2022-07-29T05:14:33;1.88;;;1.75;;
6467;SDS011;3267;48.794;9.928;2022-07-29T05:16:59;1.70;;;1.60;;
6467;SDS011;3267;48.794;9.928;2022-07-29T05:19:25;1.95;;;1.80;;
6467;SDS011;3267;48.794;9.928;2022-07-29T05:21:51;4.88;;;1.70;;
6467;SDS011;3267;48.794;9.928;2022-07-29T05:24:18;3.60;;;1.67;;
6467;SDS011;3267;48.794;9.928;2022-07-29T05:26:44;3.47;;;1.75;;
6467;SDS011;3267;48.794;9.928;2022-07-29T05:29:10;3.78;;;1.63;;
6467;SDS011;3267;48.794;9.928;2022-07-29T05:31:36;4.50;;;1.50;;
6467;SDS011;3267;48.794;9.928;2022-07-29T05:34:02;1.35;;;1.30;;
6467;SDS011;3267;48.794;9.928;2022-07-29T05:36:29;2.58;;;1.50;;
6467;SDS011;3267;48.794;9.928;2022-07-29T05:38:55;1.98;;;1.20;;
6467;SDS011;3267;48.794;9.928;2022-07-29T05:41:21;1.77;;;1.42;;
6467;SDS011;3267;48.794;9.928;2022-07-29T05:43:47;1.50;;;1.17;;
6467;SDS011;3267;48.794;9.928;2022-07-29T05:46:13;3.05;;;1.20;;
6467;SDS011;3267;48.794;9.928;2022-07-29T05:48:40;1.20;;;1.20;;
6467;SDS011;3267;48.794;9.928;2022-07-29T05:51:06;2.08;;;1.00;;
6467;SDS011;3267;48.794;9.928;2022-07-29T05:53:33;0.95;;;0.95;;
6467;SDS011;3267;48.794;9.928;2022-07-29T05:56:02;2.35;;;1.10;;
6467;SDS011;3267;48.794;9.928;2022-07-29T05:58:28;1.00;;;1.00;;
6467;SDS011;3267;48.794;9.928;2022-07-29T06:00:54;1.60;;;1.10;;
6467;SDS011;3267;48.794;9.928;2022-07-29T06:03:27;1.10;;;1.00;;
6467;SDS011;3267;48.794;9.928;2022-07-29T06:05:54;1.20;;;1.10;;
6467;SDS011;3267;48.794;9.928;2022-07-29T06:08:20;1.40;;;1.00;;
6467;SDS011;3267;48.794;9.928;2022-07-29T06:10:46;1.15;;;1.05;;
6467;SDS011;3267;48.794;9.928;2022-07-29T06:13:12;0.93;;;0.93;;
6467;SDS011;3267;48.794;9.928;2022-07-29T06:15:41;3.28;;;1.80;;
6467;SDS011;3267;48.794;9.928;2022-07-29T06:18:08;1.30;;;1.20;;
6467;SDS011;3267;48.794;9.928;2022-07-29T06:20:35;1.40;;;1.25;;
6467;SDS011;3267;48.794;9.928;2022-07-29T06:23:01;2.40;;;1.23;;
6467;SDS011;3267;48.794;9.928;2022-07-29T06:25:29;3.17;;;1.27;;
6467;SDS011;3267;48.794;9.928;2022-07-29T06:27:57;4.28;;;1.45;;
6467;SDS011;3267;48.794;9.928;2022-07-29T06:30:23;1.75;;;1.20;;
6467;SDS011;3267;48.794;9.928;2022-07-29T06:32:50;2.30;;;1.30;;
6467;SDS011;3267;48.794;9.928;2022-07-29T06:35:16;1.83;;;1.33;;
6467;SDS011;3267;48.794;9.928;2022-07-29T06:37:42;1.92;;;1.30;;
6467;SDS011;3267;48.794;9.928;2022-07-29T06:40:09;2.30;;;1.15;;
6467;SDS011;3267;48.794;9.928;2022-07-29T06:42:54;2.20;;;1.40;;
6467;SDS011;3267;48.794;9.928;2022-07-29T06:45:20;1.42;;;1.25;;
6467;SDS011;3267;48.794;9.928;2022-07-29T06:47:46;2.53;;;1.48;;
6467;SDS011;3267;48.794;9.928;2022-07-29T06:50:13;2.50;;;1.55;;
6467;SDS011;3267;48.794;9.928;2022-07-29T06:52:40;1.67;;;1.20;;
6467;SDS011;3267;48.794;9.928;2022-07-29T06:55:06;1.60;;;1.50;;
6467;SDS011;3267;48.794;9.928;2022-07-29T06:57:33;2.55;;;1.38;;
6467;SDS011;3267;48.794;9.928;2022-07-29T06:59:59;2.22;;;1.45;;
6467;SDS011;3267;48.794;9.928;2022-07-29T07:02:26;1.50;;;1.30;;
6467;SDS011;3267;48.794;9.928;2022-07-29T07:04:52;1.88;;;1.48;;
6467;SDS011;3267;48.794;9.928;2022-07-29T07:07:18;1.85;;;1.40;;
6467;SDS011;3267;48.794;9.928;2022-07-29T07:09:45;1.73;;;1.63;;
6467;SDS011;3267;48.794;9.928;2022-07-29T07:12:11;5.13;;;1.52;;
6467;SDS011;3267;48.794;9.928;2022-07-29T07:14:38;1.50;;;1.40;;
6467;SDS011;3267;48.794;9.928;2022-07-29T07:17:06;3.83;;;1.58;;
6467;SDS011;3267;48.794;9.928;2022-07-29T07:19:33;2.30;;;1.25;;
6467;SDS011;3267;48.794;9.928;2022-07-29T07:21:59;3.90;;;1.40;;
6467;SDS011;3267;48.794;9.928;2022-07-29T07:24:26;2.17;;;1.23;;
6467;SDS011;3267;48.794;9.928;2022-07-29T07:26:52;1.95;;;1.20;;
6467;SDS011;3267;48.794;9.928;2022-07-29T07:29:18;1.50;;;1.20;;
6467;SDS011;3267;48.794;9.928;2022-07-29T07:31:44;1.48;;;1.38;;
6467;SDS011;3267;48.794;9.928;2022-07-29T07:34:11;2.92;;;1.38;;
6467;SDS011;3267;48.794;9.928;2022-07-29T07:36:37;1.35;;;1.15;;
6467;SDS011;3267;48.794;9.928;2022-07-29T07:39:03;3.88;;;1.60;;
6467;SDS011;3267;48.794;9.928;2022-07-29T07:41:30;1.40;;;1.20;;
6467;SDS011;3267;48.794;9.928;2022-07-29T07:43:56;1.65;;;1.42;;
6467;SDS011;3267;48.794;9.928;2022-07-29T07:46:23;1.30;;;1.20;;
6467;SDS011;3267;48.794;9.928;2022-07-29T07:48:53;2.42;;;1.17;;
6467;SDS011;3267;48.794;9.928;2022-07-29T07:51:19;2.10;;;1.40;;
6467;SDS011;3267;48.794;9.928;2022-07-29T07:53:45;2.50;;;1.38;;
6467;SDS011;3267;48.794;9.928;2022-07-29T07:56:15;1.77;;;1.50;;
6467;SDS011;3267;48.794;9.928;2022-07-29T07:58:41;1.67;;;1.30;;
6467;SDS011;3267;48.794;9.928;2022-07-29T08:01:08;4.95;;;1.45;;
6467;SDS011;3267;48.794;9.928;2022-07-29T08:03:34;3.70;;;1.70;;
6467;SDS011;3267;48.794;9.928;2022-07-29T08:06:01;2.78;;;1.55;;
6467;SDS011;3267;48.794;9.928;2022-07-29T08:08:28;1.92;;;1.35;;
6467;SDS011;3267;48.794;9.928;2022-07-29T08:10:54;4.72;;;1.40;;
6467;SDS011;3267;48.794;9.928;2022-07-29T08:13:22;7.75;;;2.03;;
6467;SDS011;3267;48.794;9.928;2022-07-29T08:15:50;3.30;;;1.70;;
6467;SDS011;3267;48.794;9.928;2022-07-29T08:18:24;2.88;;;1.67;;
6467;SDS011;3267;48.794;9.928;2022-07-29T08:20:50;2.55;;;1.67;;
6467;SDS011;3267;48.794;9.928;2022-07-29T08:23:16;1.83;;;1.73;;
6467;SDS011;3267;48.794;9.928;2022-07-29T08:25:44;1.98;;;1.40;;
6467;SDS011;3267;48.794;9.928;2022-07-29T08:28:10;2.00;;;1.45;;
6467;SDS011;3267;48.794;9.928;2022-07-29T08:30:36;3.35;;;1.52;;
6467;SDS011;3267;48.794;9.928;2022-07-29T08:33:03;2.30;;;1.40;;
6467;SDS011;3267;48.794;9.928;2022-07-29T08:35:29;2.33;;;1.75;;
6467;SDS011;3267;48.794;9.928;2022-07-29T08:37:56;3.22;;;1.45;;
6467;SDS011;3267;48.794;9.928;2022-07-29T08:40:22;5.85;;;1.65;;
6467;SDS011;3267;48.794;9.928;2022-07-29T08:42:49;1.60;;;1.50;;
6467;SDS011;3267;48.794;9.928;2022-07-29T08:45:16;2.25;;;1.60;;
6467;SDS011;3267;48.794;9.928;2022-07-29T08:47:43;4.47;;;1.80;;
6467;SDS011;3267;48.794;9.928;2022-07-29T08:50:10;2.55;;;1.73;;
6467;SDS011;3267;48.794;9.928;2022-07-29T08:52:38;2.05;;;1.95;;
6467;SDS011;3267;48.794;9.928;2022-07-29T08:55:05;2.83;;;1.75;;
6467;SDS011;3267;48.794;9.928;2022-07-29T08:57:35;1.95;;;1.75;;
6467;SDS011;3267;48.794;9.928;2022-07-29T09:00:02;1.42;;;1.33;;
6467;SDS011;3267;48.794;9.928;2022-07-29T09:02:33;2.10;;;1.73;;
6467;SDS011;3267;48.794;9.928;2022-07-29T09:05:01;2.80;;;2.03;;
6467;SDS011;3267;48.794;9.928;2022-07-29T09:07:29;3.08;;;1.73;;
6467;SDS011;3267;48.794;9.928;2022-07-29T09:09:55;5.07;;;1.65;;
6467;SDS011;3267;48.794;9.928;2022-07-29T09:12:21;2.75;;;1.70;;
6467;SDS011;3267;48.794;9.928;2022-07-29T09:14:50;1.95;;;1.60;;
6467;SDS011;3267;48.794;9.928;2022-07-29T09:17:16;2.65;;;1.73;;
6467;SDS011;3267;48.794;9.928;2022-07-29T09:19:43;2.17;;;1.80;;
6467;SDS011;3267;48.794;9.928;2022-07-29T09:22:09;2.13;;;1.83;;
6467;SDS011;3267;48.794;9.928;2022-07-29T09:24:37;2.60;;;1.90;;
6467;SDS011;3267;48.794;9.928;2022-07-29T09:27:08;1.85;;;1.75;;
6467;SDS011;3267;48.794;9.928;2022-07-29T09:29:58;4.50;;;1.60;;
6467;SDS011;3267;48.794;9.928;2022-07-29T09:32:29;2.22;;;2.03;;
6467;SDS011;3267;48.794;9.928;2022-07-29T09:37:40;4.15;;;2.20;;
6467;SDS011;3267;48.794;9.928;2022-07-29T09:40:13;2.58;;;2.38;;
6467;SDS011;3267;48.794;9.928;2022-07-29T09:42:41;4.50;;;2.00;;
6467;SDS011;3267;48.794;9.928;2022-07-29T09:45:07;3.22;;;1.70;;
6467;SDS011;3267;48.794;9.928;2022-07-29T09:47:41;3.85;;;2.03;;
6467;SDS011;3267;48.794;9.928;2022-07-29T09:50:10;3.20;;;2.05;;
6467;SDS011;3267;48.794;9.928;2022-07-29T09:52:52;2.83;;;1.95;;
6467;SDS011;3267;48.794;9.928;2022-07-29T09:55:20;4.47;;;2.15;;
6467;SDS011;3267;48.794;9.928;2022-07-29T09:57:46;3.75;;;2.10;;
6467;SDS011;3267;48.794;9.928;2022-07-29T10:00:13;4.15;;;2.20;;
6467;SDS011;3267;48.794;9.928;2022-07-29T10:02:42;2.33;;;2.00;;
6467;SDS011;3267;48.794;9.928;2022-07-29T10:05:16;4.97;;;2.08;;
6467;SDS011;3267;48.794;9.928;2022-07-29T10:07:51;1.98;;;1.88;;
6467;SDS011;3267;48.794;9.928;2022-07-29T10:10:21;3.20;;;1.92;;
6467;SDS011;3267;48.794;9.928;2022-07-29T10:12:55;2.30;;;1.88;;
6467;SDS011;3267;48.794;9.928;2022-07-29T10:15:43;3.25;;;1.95;;
6467;SDS011;3267;48.794;9.928;2022-07-29T10:18:11;3.08;;;1.90;;
6467;SDS011;3267;48.794;9.928;2022-07-29T10:20:38;4.50;;;2.42;;
6467;SDS011;3267;48.794;9.928;2022-07-29T10:23:05;2.95;;;2.10;;
6467;SDS011;3267;48.794;9.928;2022-07-29T10:25:31;3.00;;;2.05;;
6467;SDS011;3267;48.794;9.928;2022-07-29T10:27:57;2.97;;;1.67;;
6467;SDS011;3267;48.794;9.928;2022-07-29T10:30:24;3.78;;;1.83;;
6467;SDS011;3267;48.794;9.928;2022-07-29T10:38:42;2.50;;;2.20;;
6467;SDS011;3267;48.794;9.928;2022-07-29T10:43:53;2.20;;;2.10;;
6467;SDS011;3267;48.794;9.928;2022-07-29T10:46:23;2.33;;;1.90;;
6467;SDS011;3267;48.794;9.928;2022-07-29T10:54:38;6.85;;;2.53;;
6467;SDS011;3267;48.794;9.928;2022-07-29T10:57:29;6.03;;;2.40;;
6467;SDS011;3267;48.794;9.928;2022-07-29T11:00:42;3.90;;;2.10;;
6467;SDS011;3267;48.794;9.928;2022-07-29T11:02:44;2.50;;;2.30;;
6467;SDS011;3267;48.794;9.928;2022-07-29T11:05:14;2.22;;;2.03;;
6467;SDS011;3267;48.794;9.928;2022-07-29T11:10:52;3.35;;;1.98;;
6467;SDS011;3267;48.794;9.928;2022-07-29T11:16:07;4.13;;;2.58;;
6467;SDS011;3267;48.794;9.928;2022-07-29T11:18:33;5.50;;;2.22;;
6467;SDS011;3267;48.794;9.928;2022-07-29T11:20:58;3.72;;;2.30;;
6467;SDS011;3267;48.794;9.928;2022-07-29T11:23:34;2.97;;;2.08;;
6467;SDS011;3267;48.794;9.928;2022-07-29T11:28:57;2.70;;;2.50;;
6467;SDS011;3267;48.794;9.928;2022-07-29T11:34:19;2.92;;;2.00;;
6467;SDS011;3267;48.794;9.928;2022-07-29T11:39:42;4.70;;;2.22;;
6467;SDS011;3267;48.794;9.928;2022-07-29T11:45:02;3.25;;;2.00;;
6467;SDS011;3267;48.794;9.928;2022-07-29T11:47:31;7.60;;;2.17;;
6467;SDS011;3267;48.794;9.928;2022-07-29T11:50:00;4.60;;;2.10;;
6467;SDS011;3267;48.794;9.928;2022-07-29T11:55:15;2.90;;;2.08;;
6467;SDS011;3267;48.794;9.928;2022-07-29T11:57:47;5.22;;;2.38;;
6467;SDS011;3267;48.794;9.928;2022-07-29T12:00:21;5.70;;;2.33;;
6467;SDS011;3267;48.794;9.928;2022-07-29T12:02:49;3.83;;;2.60;;
6467;SDS011;3267;48.794;9.928;2022-07-29T12:05:15;2.97;;;2.13;;
6467;SDS011;3267;48.794;9.928;2022-07-29T12:07:41;3.40;;;2.08;;
6467;SDS011;3267;48.794;9.928;2022-07-29T12:10:07;3.30;;;2.03;;
6467;SDS011;3267;48.794;9.928;2022-07-29T12:12:34;3.33;;;2.20;;
6467;SDS011;3267;48.794;9.928;2022-07-29T12:15:13;3.78;;;2.55;;
6467;SDS011;3267;48.794;9.928;2022-07-29T12:17:42;3.65;;;2.03;;
6467;SDS011;3267;48.794;9.928;2022-07-29T12:20:08;5.85;;;2.60;;
6467;SDS011;3267;48.794;9.928;2022-07-29T12:22:35;3.08;;;2.10;;
6467;SDS011;3267;48.794;9.928;2022-07-29T12:25:04;3.70;;;2.35;;
6467;SDS011;3267;48.794;9.928;2022-07-29T12:27:32;2.50;;;1.90;;
6467;SDS011;3267;48.794;9.928;2022-07-29T12:29:59;2.22;;;2.03;;
6467;SDS011;3267;48.794;9.928;2022-07-29T12:32:36;5.25;;;2.38;;
6467;SDS011;3267;48.794;9.928;2022-07-29T12:35:09;3.80;;;2.17;;
6467;SDS011;3267;48.794;9.928;2022-07-29T12:37:40;3.70;;;2.55;;
6467;SDS011;3267;48.794;9.928;2022-07-29T12:40:08;4.72;;;2.50;;
6467;SDS011;3267;48.794;9.928;2022-07-29T12:42:40;4.22;;;2.25;;
6467;SDS011;3267;48.794;9.928;2022-07-29T12:45:06;3.13;;;2.40;;
6467;SDS011;3267;48.794;9.928;2022-07-29T12:47:33;3.22;;;2.60;;
6467;SDS011;3267;48.794;9.928;2022-07-29T12:50:12;3.65;;;2.08;;
6467;SDS011;3267;48.794;9.928;2022-07-29T12:52:43;5.20;;;2.30;;
6467;SDS011;3267;48.794;9.928;2022-07-29T12:55:10;3.42;;;2.55;;
6467;SDS011;3267;48.794;9.928;2022-07-29T12:57:49;3.08;;;2.08;;
6467;SDS011;3267;48.794;9.928;2022-07-29T13:00:21;2.53;;;1.77;;
6467;SDS011;3267;48.794;9.928;2022-07-29T13:02:54;1.40;;;1.15;;
6467;SDS011;3267;48.794;9.928;2022-07-29T13:05:22;1.13;;;1.00;;
6467;SDS011;3267;48.794;9.928;2022-07-29T13:07:49;1.75;;;1.00;;
6467;SDS011;3267;48.794;9.928;2022-07-29T13:10:17;2.35;;;0.90;;
6467;SDS011;3267;48.794;9.928;2022-07-29T13:13:05;1.15;;;1.15;;
6467;SDS011;3267;48.794;9.928;2022-07-29T13:15:44;1.35;;;1.25;;
6467;SDS011;3267;48.794;9.928;2022-07-29T13:18:30;1.20;;;1.10;;
6467;SDS011;3267;48.794;9.928;2022-07-29T13:20:57;1.38;;;1.27;;
6467;SDS011;3267;48.794;9.928;2022-07-29T13:23:36;1.30;;;1.20;;
6467;SDS011;3267;48.794;9.928;2022-07-29T13:26:05;1.48;;;1.23;;
6467;SDS011;3267;48.794;9.928;2022-07-29T13:28:32;1.50;;;1.40;;
6467;SDS011;3267;48.794;9.928;2022-07-29T13:30:59;1.45;;;1.35;;
6467;SDS011;3267;48.794;9.928;2022-07-29T13:33:25;1.52;;;1.42;;
6467;SDS011;3267;48.794;9.928;2022-07-29T13:35:51;1.38;;;1.25;;
6467;SDS011;3267;48.794;9.928;2022-07-29T13:38:17;2.15;;;1.40;;
6467;SDS011;3267;48.794;9.928;2022-07-29T13:40:42;2.47;;;1.58;;
6467;SDS011;3267;48.794;9.928;2022-07-29T13:43:09;3.28;;;1.40;;
6467;SDS011;3267;48.794;9.928;2022-07-29T13:45:35;1.73;;;1.63;;
6467;SDS011;3267;48.794;9.928;2022-07-29T13:48:02;7.20;;;2.05;;
6467;SDS011;3267;48.794;9.928;2022-07-29T13:50:28;3.42;;;2.45;;
6467;SDS011;3267;48.794;9.928;2022-07-29T13:52:54;7.22;;;2.50;;
6467;SDS011;3267;48.794;9.928;2022-07-29T13:55:19;5.47;;;2.90;;
6467;SDS011;3267;48.794;9.928;2022-07-29T13:57:46;8.73;;;2.55;;
6467;SDS011;3267;48.794;9.928;2022-07-29T14:00:12;2.53;;;1.90;;
6467;SDS011;3267;48.794;9.928;2022-07-29T14:02:40;1.67;;;1.58;;
6467;SDS011;3267;48.794;9.928;2022-07-29T14:05:06;2.65;;;2.10;;
6467;SDS011;3267;48.794;9.928;2022-07-29T14:07:33;2.13;;;1.88;;
6467;SDS011;3267;48.794;9.928;2022-07-29T14:09:58;3.65;;;1.50;;
6467;SDS011;3267;48.794;9.928;2022-07-29T14:12:24;2.33;;;2.05;;
6467;SDS011;3267;48.794;9.928;2022-07-29T14:14:50;4.03;;;1.73;;
6467;SDS011;3267;48.794;9.928;2022-07-29T14:17:16;2.42;;;1.85;;
6467;SDS011;3267;48.794;9.928;2022-07-29T14:19:42;3.63;;;1.65;;
6467;SDS011;3267;48.794;9.928;2022-07-29T14:22:08;3.60;;;1.80;;
6467;SDS011;3267;48.794;9.928;2022-07-29T14:24:37;3.38;;;1.77;;
6467;SDS011;3267;48.794;9.928;2022-07-29T14:27:04;2.50;;;1.75;;
6467;SDS011;3267;48.794;9.928;2022-07-29T14:29:32;2.60;;;1.65;;
6467;SDS011;3267;48.794;9.928;2022-07-29T14:31:58;1.88;;;1.73;;
6467;SDS011;3267;48.794;9.928;2022-07-29T14:34:24;2.10;;;1.83;;
6467;SDS011;3267;48.794;9.928;2022-07-29T14:36:50;3.45;;;1.58;;
6467;SDS011;3267;48.794;9.928;2022-07-29T14:39:15;1.38;;;1.27;;
6467;SDS011;3267;48.794;9.928;2022-07-29T14:41:41;2.15;;;1.60;;
6467;SDS011;3267;48.794;9.928;2022-07-29T14:44:08;3.25;;;1.92;;
6467;SDS011;3267;48.794;9.928;2022-07-29T14:46:34;2.85;;;1.65;;
6467;SDS011;3267;48.794;9.928;2022-07-29T14:49:00;1.92;;;1.60;;
6467;SDS011;3267;48.794;9.928;2022-07-29T14:51:26;1.65;;;1.23;;
6467;SDS011;3267;48.794;9.928;2022-07-29T14:53:52;2.70;;;1.70;;
6467;SDS011;3267;48.794;9.928;2022-07-29T14:56:18;3.80;;;1.73;;
6467;SDS011;3267;48.794;9.928;2022-07-29T14:58:44;2.40;;;1.50;;
6467;SDS011;3267;48.794;9.928;2022-07-29T15:01:10;3.05;;;1.40;;
6467;SDS011;3267;48.794;9.928;2022-07-29T15:03:35;1.33;;;1.23;;
6467;SDS011;3267;48.794;9.928;2022-07-29T15:06:01;1.23;;;1.13;;
6467;SDS011;3267;48.794;9.928;2022-07-29T15:08:27;1.70;;;1.60;;
6467;SDS011;3267;48.794;9.928;2022-07-29T15:10:55;2.00;;;1.70;;
6467;SDS011;3267;48.794;9.928;2022-07-29T15:13:22;2.88;;;1.50;;
6467;SDS011;3267;48.794;9.928;2022-07-29T15:15:48;1.67;;;1.58;;
6467;SDS011;3267;48.794;9.928;2022-07-29T15:18:15;1.63;;;1.33;;
6467;SDS011;3267;48.794;9.928;2022-07-29T15:20:41;1.40;;;1.30;;
6467;SDS011;3267;48.794;9.928;2022-07-29T15:23:07;2.03;;;1.50;;
6467;SDS011;3267;48.794;9.928;2022-07-29T15:25:34;1.45;;;1.35;;
6467;SDS011;3267;48.794;9.928;2022-07-29T15:28:01;1.75;;;1.50;;
6467;SDS011;3267;48.794;9.928;2022-07-29T15:30:29;1.80;;;1.48;;
6467;SDS011;3267;48.794;9.928;2022-07-29T15:32:55;1.80;;;1.65;;
6467;SDS011;3267;48.794;9.928;2022-07-29T15:35:21;2.50;;;1.50;;
6467;SDS011;3267;48.794;9.928;2022-07-29T15:37:47;1.63;;;1.52;;
6467;SDS011;3267;48.794;9.928;2022-07-29T15:40:13;1.98;;;1.60;;
6467;SDS011;3267;48.794;9.928;2022-07-29T15:42:39;1.65;;;1.55;;
6467;SDS011;3267;48.794;9.928;2022-07-29T15:45:04;2.67;;;1.50;;
6467;SDS011;3267;48.794;9.928;2022-07-29T15:47:31;1.90;;;1.70;;
6467;SDS011;3267;48.794;9.928;2022-07-29T15:49:56;1.88;;;1.67;;
6467;SDS011;3267;48.794;9.928;2022-07-29T15:52:22;2.65;;;1.70;;
6467;SDS011;3267;48.794;9.928;2022-07-29T15:54:48;1.80;;;1.67;;
6467;SDS011;3267;48.794;9.928;2022-07-29T15:57:14;2.80;;;2.00;;
6467;SDS011;3267;48.794;9.928;2022-07-29T15:59:40;3.42;;;2.10;;
6467;SDS011;3267;48.794;9.928;2022-07-29T16:02:05;2.60;;;1.70;;
6467;SDS011;3267;48.794;9.928;2022-07-29T16:04:32;1.88;;;1.70;;
6467;SDS011;3267;48.794;9.928;2022-07-29T16:06:58;2.05;;;1.80;;
6467;SDS011;3267;48.794;9.928;2022-07-29T16:09:23;3.65;;;1.88;;
6467;SDS011;3267;48.794;9.928;2022-07-29T16:11:50;2.72;;;1.92;;
6467;SDS011;3267;48.794;9.928;2022-07-29T16:14:18;2.33;;;1.95;;
6467;SDS011;3267;48.794;9.928;2022-07-29T16:16:44;2.53;;;1.70;;
6467;SDS011;3267;48.794;9.928;2022-07-29T16:19:10;3.85;;;1.80;;
6467;SDS011;3267;48.794;9.928;2022-07-29T16:21:36;2.08;;;1.70;;
6467;SDS011;3267;48.794;9.928;2022-07-29T16:24:03;2.83;;;1.92;;
6467;SDS011;3267;48.794;9.928;2022-07-29T16:26:30;5.22;;;1.67;;
6467;SDS011;3267;48.794;9.928;2022-07-29T16:28:57;1.70;;;1.60;;
6467;SDS011;3267;48.794;9.928;2022-07-29T16:31:24;2.95;;;1.65;;
6467;SDS011;3267;48.794;9.928;2022-07-29T16:33:50;1.98;;;1.42;;
6467;SDS011;3267;48.794;9.928;2022-07-29T16:36:17;5.03;;;1.50;;
6467;SDS011;3267;48.794;9.928;2022-07-29T16:38:43;1.50;;;1.40;;
6467;SDS011;3267;48.794;9.928;2022-07-29T16:41:09;2.30;;;1.25;;
6467;SDS011;3267;48.794;9.928;2022-07-29T16:43:35;1.65;;;1.55;;
6467;SDS011;3267;48.794;9.928;2022-07-29T16:46:01;4.75;;;1.85;;
6467;SDS011;3267;48.794;9.928;2022-07-29T16:48:27;1.70;;;1.60;;
6467;SDS011;3267;48.794;9.928;2022-07-29T16:50:53;1.65;;;1.55;;
6467;SDS011;3267;48.794;9.928;2022-07-29T16:53:20;2.47;;;1.40;;
6467;SDS011;3267;48.794;9.928;2022-07-29T16:55:46;2.35;;;1.70;;
6467;SDS011;3267;48.794;9.928;2022-07-29T16:58:12;1.67;;;1.55;;
6467;SDS011;3267;48.794;9.928;2022-07-29T17:00:37;3.45;;;1.65;;
6467;SDS011;3267;48.794;9.928;2022-07-29T17:03:03;7.47;;;1.88;;
6467;SDS011;3267;48.794;9.928;2022-07-29T17:05:30;2.42;;;1.77;;
6467;SDS011;3267;48.794;9.928;2022-07-29T17:07:56;1.98;;;1.55;;
6467;SDS011;3267;48.794;9.928;2022-07-29T17:10:23;5.32;;;2.28;;
6467;SDS011;3267;48.794;9.928;2022-07-29T17:12:49;3.15;;;1.70;;
6467;SDS011;3267;48.794;9.928;2022-07-29T17:15:15;3.47;;;1.63;;
6467;SDS011;3267;48.794;9.928;2022-07-29T17:17:43;3.63;;;1.70;;
6467;SDS011;3267;48.794;9.928;2022-07-29T17:20:10;1.50;;;1.40;;
6467;SDS011;3267;48.794;9.928;2022-07-29T17:22:36;3.15;;;1.40;;
6467;SDS011;3267;48.794;9.928;2022-07-29T17:25:03;2.03;;;1.80;;
6467;SDS011;3267;48.794;9.928;2022-07-29T17:27:30;1.90;;;1.70;;
6467;SDS011;3267;48.794;9.928;2022-07-29T17:29:56;1.83;;;1.52;;
6467;SDS011;3267;48.794;9.928;2022-07-29T17:32:22;1.70;;;1.60;;
6467;SDS011;3267;48.794;9.928;2022-07-29T17:34:48;2.90;;;1.80;;
6467;SDS011;3267;48.794;9.928;2022-07-29T17:37:14;6.35;;;1.60;;
6467;SDS011;3267;48.794;9.928;2022-07-29T17:39:40;1.38;;;1.27;;
6467;SDS011;3267;48.794;9.928;2022-07-29T17:42:10;3.33;;;1.70;;
6467;SDS011;3267;48.794;9.928;2022-07-29T17:44:38;3.15;;;1.80;;
6467;SDS011;3267;48.794;9.928;2022-07-29T17:47:05;1.67;;;1.58;;
6467;SDS011;3267;48.794;9.928;2022-07-29T17:49:31;3.90;;;1.88;;
6467;SDS011;3267;48.794;9.928;2022-07-29T17:51:57;1.95;;;1.80;;
6467;SDS011;3267;48.794;9.928;2022-07-29T17:54:23;2.28;;;1.50;;
6467;SDS011;3267;48.794;9.928;2022-07-29T17:56:49;3.88;;;1.52;;
6467;SDS011;3267;48.794;9.928;2022-07-29T17:59:15;1.63;;;1.52;;
6467;SDS011;3267;48.794;9.928;2022-07-29T18:01:41;1.88;;;1.58;;
6467;SDS011;3267;48.794;9.928;2022-07-29T18:04:07;2.80;;;1.90;;
6467;SDS011;3267;48.794;9.928;2022-07-29T18:06:33;2.17;;;1.88;;
6467;SDS011;3267;48.794;9.928;2022-07-29T18:08:59;5.65;;;1.98;;
6467;SDS011;3267;48.794;9.928;2022-07-29T18:11:26;2.25;;;1.98;;
6467;SDS011;3267;48.794;9.928;2022-07-29T18:13:52;1.90;;;1.80;;
6467;SDS011;3267;48.794;9.928;2022-07-29T18:16:18;5.22;;;2.63;;
6467;SDS011;3267;48.794;9.928;2022-07-29T18:18:44;2.03;;;1.92;;
6467;SDS011;3267;48.794;9.928;2022-07-29T18:21:10;3.20;;;2.15;;
6467;SDS011;3267;48.794;9.928;2022-07-29T18:23:36;2.67;;;1.92;;
6467;SDS011;3267;48.794;9.928;2022-07-29T18:26:02;3.88;;;2.72;;
6467;SDS011;3267;48.794;9.928;2022-07-29T18:28:28;2.85;;;2.65;;
6467;SDS011;3267;48.794;9.928;2022-07-29T18:30:54;2.80;;;1.85;;
6467;SDS011;3267;48.794;9.928;2022-07-29T18:33:20;2.22;;;2.03;;
6467;SDS011;3267;48.794;9.928;2022-07-29T18:35:46;3.60;;;2.00;;
6467;SDS011;3267;48.794;9.928;2022-07-29T18:38:13;1.90;;;1.80;;
6467;SDS011;3267;48.794;9.928;2022-07-29T18:40:39;2.03;;;1.80;;
6467;SDS011;3267;48.794;9.928;2022-07-29T18:43:09;2.92;;;1.85;;
6467;SDS011;3267;48.794;9.928;2022-07-29T18:45:35;4.43;;;1.65;;
6467;SDS011;3267;48.794;9.928;2022-07-29T18:48:01;1.90;;;1.70;;
6467;SDS011;3267;48.794;9.928;2022-07-29T18:50:27;2.95;;;2.00;;
6467;SDS011;3267;48.794;9.928;2022-07-29T18:52:54;4.15;;;2.10;;
6467;SDS011;3267;48.794;9.928;2022-07-29T18:55:22;3.15;;;1.45;;
6467;SDS011;3267;48.794;9.928;2022-07-29T18:57:49;2.88;;;1.70;;
6467;SDS011;3267;48.794;9.928;2022-07-29T19:00:14;2.45;;;1.60;;
6467;SDS011;3267;48.794;9.928;2022-07-29T19:02:40;2.33;;;1.55;;
6467;SDS011;3267;48.794;9.928;2022-07-29T19:05:07;3.22;;;2.05;;
6467;SDS011;3267;48.794;9.928;2022-07-29T19:07:34;3.50;;;1.88;;
6467;SDS011;3267;48.794;9.928;2022-07-29T19:10:01;5.38;;;2.00;;
6467;SDS011;3267;48.794;9.928;2022-07-29T19:12:28;2.60;;;1.77;;
6467;SDS011;3267;48.794;9.928;2022-07-29T19:14:54;5.22;;;2.00;;
6467;SDS011;3267;48.794;9.928;2022-07-29T19:17:20;2.05;;;1.80;;
6467;SDS011;3267;48.794;9.928;2022-07-29T19:19:46;2.95;;;2.30;;
6467;SDS011;3267;48.794;9.928;2022-07-29T19:22:12;4.68;;;1.92;;
6467;SDS011;3267;48.794;9.928;2022-07-29T19:24:39;2.33;;;1.70;;
6467;SDS011;3267;48.794;9.928;2022-07-29T19:27:05;2.70;;;1.73;;
6467;SDS011;3267;48.794;9.928;2022-07-29T19:29:30;3.28;;;2.00;;
6467;SDS011;3267;48.794;9.928;2022-07-29T19:31:57;4.78;;;2.00;;
6467;SDS011;3267;48.794;9.928;2022-07-29T19:34:25;6.80;;;1.90;;
6467;SDS011;3267;48.794;9.928;2022-07-29T19:36:54;5.13;;;1.60;;
6467;SDS011;3267;48.794;9.928;2022-07-29T19:39:20;4.45;;;2.03;;
6467;SDS011;3267;48.794;9.928;2022-07-29T19:41:46;3.50;;;1.60;;
6467;SDS011;3267;48.794;9.928;2022-07-29T19:44:12;1.88;;;1.77;;
6467;SDS011;3267;48.794;9.928;2022-07-29T19:46:39;2.55;;;1.85;;
6467;SDS011;3267;48.794;9.928;2022-07-29T19:49:05;2.97;;;1.98;;
6467;SDS011;3267;48.794;9.928;2022-07-29T19:51:32;3.47;;;1.75;;
6467;SDS011;3267;48.794;9.928;2022-07-29T19:53:58;3.17;;;2.05;;